TimeEST,TemperatureF,Dew PointF,Humidity,Sea Level PressureIn,VisibilityMPH,Wind Direction,Wind SpeedMPH,Gust SpeedMPH,PrecipitationIn,Events,Conditions,WindDirDegrees,DateUTC
12:53 AM,39.0,26.1,60,30.07,10.0,WNW,3.5,-,N/A,,Clear,300,2013-01-07 05:53:00
1:53 AM,39.0,26.1,60,30.09,10.0,NW,5.8,-,N/A,,Clear,310,2013-01-07 06:53:00
2:53 AM,37.9,26.1,62,30.11,10.0,WNW,4.6,-,N/A,,Clear,300,2013-01-07 07:53:00
3:53 AM,37.0,26.1,65,30.12,10.0,NW,5.8,-,N/A,,Clear,310,2013-01-07 08:53:00
4:53 AM,37.0,26.1,65,30.14,10.0,NW,3.5,-,N/A,,Mostly Cloudy,310,2013-01-07 09:53:00
5:53 AM,36.0,26.1,67,30.18,10.0,Calm,Calm,-,N/A,,Scattered Clouds,0,2013-01-07 10:53:00
6:53 AM,34.0,26.1,73,30.22,10.0,Calm,Calm,-,N/A,,Mostly Cloudy,0,2013-01-07 11:53:00
7:53 AM,37.0,27.0,67,30.25,10.0,Calm,Calm,-,N/A,,Mostly Cloudy,0,2013-01-07 12:53:00
8:53 AM,39.0,28.9,67,30.28,10.0,NW,3.5,-,N/A,,Overcast,320,2013-01-07 13:53:00
9:53 AM,42.1,28.9,60,30.30,10.0,NW,9.2,-,N/A,,Clear,310,2013-01-07 14:53:00
10:53 AM,43.0,27.0,53,30.32,10.0,North,10.4,-,N/A,,Overcast,360,2013-01-07 15:53:00
11:53 AM,45.0,27.0,49,30.32,10.0,NNW,10.4,18.4,N/A,,Partly Cloudy,340,2013-01-07 16:53:00
12:53 PM,45.0,24.1,44,30.33,10.0,North,12.7,17.3,N/A,,Scattered Clouds,360,2013-01-07 17:53:00
1:53 PM,45.0,23.0,42,30.32,10.0,NNW,13.8,17.3,N/A,,Clear,340,2013-01-07 18:53:00
2:53 PM,46.0,23.0,40,30.34,10.0,Variable,6.9,-,N/A,,Clear,0,2013-01-07 19:53:00
3:53 PM,45.0,23.0,42,30.36,10.0,NW,4.6,-,N/A,,Clear,320,2013-01-07 20:53:00
4:53 PM,42.1,23.0,47,30.38,10.0,Calm,Calm,-,N/A,,Clear,0,2013-01-07 21:53:00
6:53 PM,36.0,23.0,59,30.38,10.0,Calm,Calm,-,N/A,,Clear,0,2013-01-07 23:53:00
7:53 PM,37.9,25.0,60,30.39,10.0,WNW,3.5,-,N/A,,Clear,300,2013-01-08 00:53:00
8:53 PM,34.0,24.1,67,30.38,10.0,WNW,3.5,-,N/A,,Clear,290,2013-01-08 01:53:00
9:53 PM,30.9,23.0,72,30.38,10.0,Calm,Calm,-,N/A,,Clear,0,2013-01-08 02:53:00
10:53 PM,30.0,23.0,75,30.39,9.0,Calm,Calm,-,N/A,,Clear,0,2013-01-08 03:53:00
11:53 PM,30.0,23.0,75,30.38,8.0,Calm,Calm,-,N/A,,Clear,0,2013-01-08 04:53:00